Time;durP1;ratioP1;P1;durP2;ratioP2;P2;SDS_P1;SDS_P2;PMS_P1;PMS_P2;Temp;Humidity;BMP_temperature;BMP_pressure;BME280_temperature;BME280_humidity;BME280_pressure;Samples;Min_cycle;Max_cycle;Signal;HPM_P1;HPM_P2
2021/10/11 00:00:44;;;;;;;;;;;;;;;15.79;57.66;102072.28;4981488;28;102168;-89
2021/10/11 00:03:11;;;;;;;;;;;;;;;15.80;57.88;102076.69;4973379;28;102252;-89
2021/10/11 00:05:37;;;;;;;;;;;;;;;15.79;57.92;102072.28;4979598;28;102681;-89
2021/10/11 00:08:04;;;;;;;;;;;;;;;15.79;57.49;102078.59;4984118;28;102732;-88
2021/10/11 00:10:33;;;;;;;;;;;;;;;15.79;57.70;102078.59;4981199;28;102347;-88
2021/10/11 00:13:00;;;;;;;;;;;;;;;15.78;58.06;102081.63;4982334;28;102356;-88
2021/10/11 00:15:29;;;;;;;;;;;;;;;15.79;57.73;102075.03;4977772;28;102808;-88
2021/10/11 00:17:58;;;;;;;;;;;;;;;15.79;57.57;102072.28;4974041;28;102218;-90
2021/10/11 00:20:26;;;;;;;;;;;;;;;15.79;57.70;102066.78;4970288;28;102194;-89
2021/10/11 00:22:56;;;;;;;;;;;;;;;15.78;57.86;102054.19;4976433;28;102698;-89
2021/10/11 00:25:23;;;;;;;;;;;;;;;15.78;57.80;102063.22;4983745;28;102749;-89
2021/10/11 00:27:49;;;;;;;;;;;;;;;15.79;58.11;102056.63;4986765;28;102559;-81
2021/10/11 00:30:17;;;;;;;;;;;;;;;15.79;58.03;102066.78;4981942;28;102597;-81
2021/10/11 00:32:43;;;;;;;;;;;;;;;15.78;57.76;102046.75;4977919;28;102399;-81
2021/10/11 00:35:10;;;;;;;;;;;;;;;15.79;57.87;102055.81;4975181;28;102724;-82
2021/10/11 00:37:36;;;;;;;;;;;;;;;15.79;58.12;102050.31;4979899;28;102559;-81
2021/10/11 00:40:03;;;;;;;;;;;;;;;15.79;58.09;102050.31;4979206;28;103461;-81
2021/10/11 00:42:29;;;;;;;;;;;;;;;15.78;57.71;102049.50;4982250;28;102196;-81
2021/10/11 00:44:55;;;;;;;;;;;;;;;15.78;57.72;102048.69;4976978;28;103002;-81
2021/10/11 00:47:23;;;;;;;;;;;;;;;15.79;58.16;102042.09;4979298;28;102364;-88
2021/10/11 00:49:49;;;;;;;;;;;;;;;15.79;58.18;102053.06;4975481;28;102803;-89
2021/10/11 00:52:15;;;;;;;;;;;;;;;15.79;58.38;102050.31;4977766;28;102444;-89
2021/10/11 00:54:41;;;;;;;;;;;;;;;15.79;58.15;102050.31;4990012;28;103913;-89
2021/10/11 00:57:07;;;;;;;;;;;;;;;15.78;58.25;102049.50;4980956;28;102197;-89
2021/10/11 00:59:34;;;;;;;;;;;;;;;15.78;58.18;102037.72;4975709;28;102278;-91
2021/10/11 01:02:02;;;;;;;;;;;;;;;15.79;57.69;102039.34;4975946;28;102554;-82
2021/10/11 01:04:31;;;;;;;;;;;;;;;15.78;57.95;102035.78;4972782;28;102837;-90
2021/10/11 01:06:57;;;;;;;;;;;;;;;15.79;58.22;102039.34;4976087;28;102054;-90
2021/10/11 01:09:24;;;;;;;;;;;;;;;15.79;58.06;102039.34;4973034;28;102192;-89
2021/10/11 01:11:51;;;;;;;;;;;;;;;15.79;58.16;102033.84;4977155;28;103304;-88
2021/10/11 01:14:18;;;;;;;;;;;;;;;15.79;58.24;102023.69;4974759;28;103995;-89
2021/10/11 01:16:46;;;;;;;;;;;;;;;15.79;57.94;102028.38;4973384;28;102390;-89
2021/10/11 01:19:13;;;;;;;;;;;;;;;15.79;58.36;102023.69;4979157;28;102206;-88
2021/10/11 01:21:40;;;;;;;;;;;;;;;15.79;57.79;102023.69;4977772;28;102101;-88
2021/10/11 01:24:06;;;;;;;;;;;;;;;15.78;58.26;102015.75;4978409;28;102703;-81
2021/10/11 01:26:36;;;;;;;;;;;;;;;15.79;58.02;102014.63;4975203;28;102463;-81
2021/10/11 01:29:03;;;;;;;;;;;;;;;15.79;58.10;102011.91;4972746;28;102649;-81
2021/10/11 01:31:29;;;;;;;;;;;;;;;15.77;58.35;102003.13;4977832;28;102215;-81
2021/10/11 01:33:55;;;;;;;;;;;;;;;15.78;58.20;102008.31;4972524;28;102709;-81
2021/10/11 01:36:21;;;;;;;;;;;;;;;15.78;58.01;101999.28;4977159;28;102905;-81
2021/10/11 01:38:51;;;;;;;;;;;;;;;15.79;58.38;101995.44;4980258;28;102221;-81
2021/10/11 01:41:17;;;;;;;;;;;;;;;15.79;58.47;102000.91;4973553;28;102123;-91
2021/10/11 01:43:44;;;;;;;;;;;;;;;15.79;57.93;102003.66;4978069;28;102453;-91
2021/10/11 01:46:10;;;;;;;;;;;;;;;15.78;58.43;101994.59;4979081;28;102738;-91
2021/10/11 01:48:36;;;;;;;;;;;;;;;15.79;58.35;101989.94;4975003;28;102222;-91
2021/10/11 01:51:02;;;;;;;;;;;;;;;15.78;58.44;101994.59;4983077;28;102297;-90
2021/10/11 01:53:28;;;;;;;;;;;;;;;15.79;58.26;101989.94;4980373;28;102677;-91
2021/10/11 01:55:56;;;;;;;;;;;;;;;15.78;58.47;101994.59;4990806;28;102585;-89
2021/10/11 01:58:22;;;;;;;;;;;;;;;15.78;57.93;101994.59;4971116;28;102478;-90
2021/10/11 02:00:48;;;;;;;;;;;;;;;15.78;58.01;101993.78;4984371;28;102327;-80
2021/10/11 02:03:14;;;;;;;;;;;;;;;15.77;58.49;101984.72;4970205;28;103983;-91
2021/10/11 02:05:40;;;;;;;;;;;;;;;15.79;58.05;101984.44;4981492;28;102180;-92
2021/10/11 02:08:06;;;;;;;;;;;;;;;15.78;58.34;101983.63;4969938;28;102196;-90
2021/10/11 02:10:32;;;;;;;;;;;;;;;15.78;58.38;101982.81;4984492;28;102333;-87
2021/10/11 02:13:00;;;;;;;;;;;;;;;15.78;58.16;101980.06;4968569;28;104032;-89
2021/10/11 02:15:27;;;;;;;;;;;;;;;15.78;58.39;101977.31;4970138;28;102212;-90
2021/10/11 02:17:53;;;;;;;;;;;;;;;15.77;58.37;101979.25;4970729;28;102655;-90
2021/10/11 02:20:20;;;;;;;;;;;;;;;15.77;58.56;101971.00;4976719;28;102249;-90
2021/10/11 02:22:46;;;;;;;;;;;;;;;15.77;58.41;101981.16;4980756;28;103872;-90
2021/10/11 02:25:12;;;;;;;;;;;;;;;15.77;58.40;101982.00;4978678;28;102208;-90
2021/10/11 02:27:39;;;;;;;;;;;;;;;15.78;58.50;101985.56;4977995;28;102379;-88
2021/10/11 02:30:07;;;;;;;;;;;;;;;15.77;58.40;101981.16;4975767;28;102214;-88
2021/10/11 02:32:35;;;;;;;;;;;;;;;15.77;58.72;101981.16;4978146;28;106885;-88
2021/10/11 02:35:01;;;;;;;;;;;;;;;15.76;58.20;101974.88;4976231;28;102913;-87
2021/10/11 02:37:27;;;;;;;;;;;;;;;15.76;58.60;101969.38;4974829;28;102126;-81
2021/10/11 02:39:54;;;;;;;;;;;;;;;15.77;58.11;101970.19;4972751;28;102309;-87
2021/10/11 02:42:21;;;;;;;;;;;;;;;15.76;58.57;101963.03;4974534;28;102803;-87
2021/10/11 02:44:47;;;;;;;;;;;;;;;15.76;58.12;101971.28;4973682;28;102183;-88
2021/10/11 02:47:15;;;;;;;;;;;;;;;15.75;58.39;101969.63;4980785;28;102074;-88
2021/10/11 02:49:41;;;;;;;;;;;;;;;15.75;58.32;101961.41;4972717;28;102203;-86
2021/10/11 02:52:08;;;;;;;;;;;;;;;15.76;58.65;101952.06;4977934;28;103733;-88
2021/10/11 02:54:34;;;;;;;;;;;;;;;15.76;58.25;101946.56;4973963;28;102371;-88
2021/10/11 02:57:00;;;;;;;;;;;;;;;15.75;58.61;101943.00;4978514;28;102243;-81
2021/10/11 02:59:27;;;;;;;;;;;;;;;15.75;58.49;101944.94;4977149;28;102607;-88
2021/10/11 03:01:53;;;;;;;;;;;;;;;15.75;58.29;101945.75;4978126;28;102691;-88
2021/10/11 03:04:20;;;;;;;;;;;;;;;15.75;58.46;101937.50;4974639;28;102558;-88
2021/10/11 03:06:46;;;;;;;;;;;;;;;15.75;58.48;101933.94;4972537;28;102416;-90
2021/10/11 03:09:12;;;;;;;;;;;;;;;15.74;58.37;101933.13;4970352;28;102871;-90
2021/10/11 03:11:38;;;;;;;;;;;;;;;15.74;58.31;101930.38;4976438;28;103067;-91
2021/10/11 03:14:05;;;;;;;;;;;;;;;15.74;58.68;101926.81;4970803;28;102523;-92
2021/10/11 03:16:32;;;;;;;;;;;;;;;15.74;58.35;101935.06;4976753;28;101916;-93
2021/10/11 03:18:58;;;;;;;;;;;;;;;15.74;58.73;101937.81;4969323;28;102654;-80
2021/10/11 03:21:26;;;;;;;;;;;;;;;15.73;58.74;101944.41;4975437;28;103848;-80
2021/10/11 03:23:52;;;;;;;;;;;;;;;15.74;58.49;101948.78;4966649;28;102268;-81
2021/10/11 03:26:19;;;;;;;;;;;;;;;15.74;58.74;101940.53;4975116;28;102396;-81
2021/10/11 03:28:45;;;;;;;;;;;;;;;15.74;58.60;101943.28;4975243;28;102195;-81
2021/10/11 03:31:12;;;;;;;;;;;;;;;15.74;58.63;101943.28;4970012;28;105147;-81
2021/10/11 03:33:38;;;;;;;;;;;;;;;15.73;58.73;101947.16;4979225;28;102536;-81
2021/10/11 03:36:05;;;;;;;;;;;;;;;15.73;58.65;101947.97;4977333;28;102368;-81
2021/10/11 03:38:34;;;;;;;;;;;;;;;15.73;58.44;101941.66;4982204;28;102205;-81
2021/10/11 03:41:00;;;;;;;;;;;;;;;15.73;58.27;101936.16;4980702;28;102698;-80
2021/10/11 03:43:26;;;;;;;;;;;;;;;15.73;58.62;101945.22;4981964;28;102155;-81
2021/10/11 03:45:54;;;;;;;;;;;;;;;15.72;58.71;101940.00;4983829;28;102416;-80
2021/10/11 03:48:21;;;;;;;;;;;;;;;15.73;58.64;101941.66;4976206;28;102224;-80
2021/10/11 03:50:47;;;;;;;;;;;;;;;15.73;58.34;101930.69;4966435;28;102506;-80
2021/10/11 03:53:13;;;;;;;;;;;;;;;15.73;58.30;101930.69;4974089;28;102899;-81
2021/10/11 03:55:41;;;;;;;;;;;;;;;15.72;58.34;101923.53;4966546;28;102590;-80
2021/10/11 03:58:07;;;;;;;;;;;;;;;15.72;58.56;101920.78;4974120;28;102278;-90
2021/10/11 04:00:34;;;;;;;;;;;;;;;15.72;58.48;101918.03;4964153;28;103921;-90
2021/10/11 04:03:03;;;;;;;;;;;;;;;15.70;58.55;101915.56;4970325;28;102396;-89
2021/10/11 04:05:29;;;;;;;;;;;;;;;15.70;58.76;101923.81;4977635;28;102464;-90
2021/10/11 04:07:59;;;;;;;;;;;;;;;15.71;58.50;101919.13;4976358;28;102305;-90
2021/10/11 04:10:32;;;;;;;;;;;;;;;15.71;58.72;101925.44;4967507;28;102225;-90
2021/10/11 04:13:04;;;;;;;;;;;;;;;15.73;58.28;101927.94;4977252;28;102251;-82
2021/10/11 04:15:30;;;;;;;;;;;;;;;15.69;58.75;101922.19;4981797;28;102261;-82
2021/10/11 04:17:56;;;;;;;;;;;;;;;15.70;58.50;101921.06;4981105;28;102257;-79
2021/10/11 04:20:23;;;;;;;;;;;;;;;15.70;58.78;101925.75;4979592;28;102743;-81
2021/10/11 04:22:49;;;;;;;;;;;;;;;15.70;58.73;101925.75;4979410;28;102269;-81
2021/10/11 04:25:15;;;;;;;;;;;;;;;15.70;58.71;101925.75;4993146;28;102338;-80
2021/10/11 04:27:41;;;;;;;;;;;;;;;15.70;58.36;101917.50;4979709;28;102436;-81
2021/10/11 04:30:09;;;;;;;;;;;;;;;15.70;58.41;101914.75;4984011;28;102741;-81
2021/10/11 04:32:36;;;;;;;;;;;;;;;15.69;58.29;101924.91;4979913;28;102873;-81
2021/10/11 04:35:02;;;;;;;;;;;;;;;15.70;58.84;101923.00;4978584;28;102836;-88
2021/10/11 04:37:28;;;;;;;;;;;;;;;15.69;58.39;101919.44;4980629;28;102492;-92
2021/10/11 04:39:55;;;;;;;;;;;;;;;15.68;58.52;101923.25;4977272;28;104195;-92
2021/10/11 04:42:21;;;;;;;;;;;;;;;15.70;58.74;101923.00;4980902;28;102467;-91
2021/10/11 04:44:47;;;;;;;;;;;;;;;15.69;58.78;101918.63;4976967;28;102386;-91
2021/10/11 04:47:15;;;;;;;;;;;;;;;15.68;58.60;101917.75;4978294;28;102449;-88
2021/10/11 04:49:41;;;;;;;;;;;;;;;15.70;58.54;101917.50;4976433;28;103879;-92
2021/10/11 04:52:07;;;;;;;;;;;;;;;15.70;58.87;101920.25;4975814;28;102414;-91
2021/10/11 04:54:34;;;;;;;;;;;;;;;15.69;58.58;101918.63;4979164;28;102277;-81
2021/10/11 04:57:00;;;;;;;;;;;;;;;15.69;58.89;101907.63;4975628;28;102692;-81
2021/10/11 04:59:26;;;;;;;;;;;;;;;15.68;58.47;101909.53;4974212;28;103250;-81
2021/10/11 05:01:53;;;;;;;;;;;;;;;15.69;58.80;101913.13;4973917;28;102499;-81
2021/10/11 05:04:20;;;;;;;;;;;;;;;15.70;58.55;101914.75;4973908;28;102314;-81
2021/10/11 05:06:47;;;;;;;;;;;;;;;15.69;58.83;101907.63;4982181;28;102627;-81
2021/10/11 05:09:13;;;;;;;;;;;;;;;15.70;58.37;101909.28;4977530;28;103834;-81
2021/10/11 05:11:39;;;;;;;;;;;;;;;15.68;58.49;101897.72;4978890;28;102332;-80
2021/10/11 05:14:06;;;;;;;;;;;;;;;15.69;58.96;101896.66;4977311;28;102265;-86
2021/10/11 05:16:34;;;;;;;;;;;;;;;15.68;58.51;101906.78;4976629;28;102702;-87
2021/10/11 05:19:01;;;;;;;;;;;;;;;15.69;58.46;101913.94;4969491;28;103916;-87
2021/10/11 05:21:30;;;;;;;;;;;;;;;15.69;58.48;101907.63;4973547;28;102958;-87
2021/10/11 05:23:56;;;;;;;;;;;;;;;15.68;58.80;101908.72;4970715;28;102522;-86
2021/10/11 05:26:23;;;;;;;;;;;;;;;15.69;58.97;101907.63;4973819;28;102411;-87
2021/10/11 05:28:49;;;;;;;;;;;;;;;15.69;58.65;101908.44;4976669;28;103059;-87
2021/10/11 05:31:16;;;;;;;;;;;;;;;15.69;58.69;101899.41;4978114;28;102426;-81
2021/10/11 05:33:42;;;;;;;;;;;;;;;15.69;58.70;101902.97;4977743;28;102243;-81
2021/10/11 05:36:08;;;;;;;;;;;;;;;15.70;58.57;101903.78;4976648;28;102442;-79
2021/10/11 05:38:36;;;;;;;;;;;;;;;15.69;58.97;101902.16;4974607;28;105457;-80
2021/10/11 05:41:02;;;;;;;;;;;;;;;15.69;59.00;101904.88;4970495;28;102288;-81
2021/10/11 05:43:28;;;;;;;;;;;;;;;15.69;59.02;101913.94;4977136;28;102177;-81
2021/10/11 05:45:54;;;;;;;;;;;;;;;15.70;59.04;101909.28;4974753;28;102369;-81
2021/10/11 05:48:21;;;;;;;;;;;;;;;15.70;59.10;101909.28;4974161;28;102713;-87
2021/10/11 05:50:47;;;;;;;;;;;;;;;15.68;58.94;101904.03;4980310;28;102465;-87
2021/10/11 05:53:13;;;;;;;;;;;;;;;15.70;58.80;101903.78;4980468;28;102504;-86
2021/10/11 05:55:41;;;;;;;;;;;;;;;15.69;58.91;101896.66;4968522;28;102390;-86
2021/10/11 05:58:08;;;;;;;;;;;;;;;15.70;58.46;101898.28;4970897;28;102542;-85
2021/10/11 06:00:34;;;;;;;;;;;;;;;15.70;58.82;101892.81;4975801;28;103151;-86
2021/10/11 06:03:00;;;;;;;;;;;;;;;15.70;58.90;101892.81;4981848;28;102474;-87
2021/10/11 06:05:26;;;;;;;;;;;;;;;15.70;58.62;101895.56;4976808;28;102200;-88
2021/10/11 06:07:53;;;;;;;;;;;;;;;15.69;59.00;101893.91;4975281;28;103879;-88
2021/10/11 06:10:19;;;;;;;;;;;;;;;15.69;58.69;101904.88;4976486;28;102638;-83
2021/10/11 06:12:46;;;;;;;;;;;;;;;15.70;58.82;101906.53;4973791;28;102996;-82
2021/10/11 06:15:13;;;;;;;;;;;;;;;15.69;59.07;101905.72;4971131;28;103728;-82
2021/10/11 06:17:39;;;;;;;;;;;;;;;15.69;58.57;101907.63;4974004;28;103946;-82
2021/10/11 06:20:05;;;;;;;;;;;;;;;15.70;59.07;101903.78;4977646;28;102444;-83
2021/10/11 06:22:35;;;;;;;;;;;;;;;15.69;58.94;101900.22;4973753;28;102169;-82
2021/10/11 06:25:04;;;;;;;;;;;;;;;15.70;58.48;101901.84;4977162;28;102339;-83
2021/10/11 06:27:31;;;;;;;;;;;;;;;15.70;58.77;101901.03;4968463;28;102915;-83
2021/10/11 06:29:59;;;;;;;;;;;;;;;15.71;58.93;101899.94;4973682;28;103828;-87
2021/10/11 06:32:25;;;;;;;;;;;;;;;15.71;58.92;101892.50;4971404;28;102613;-89
2021/10/11 06:34:52;;;;;;;;;;;;;;;15.70;58.82;101892.81;4963736;28;102719;-87
2021/10/11 06:37:18;;;;;;;;;;;;;;;15.70;58.87;101903.78;4973343;28;103881;-87
2021/10/11 06:39:44;;;;;;;;;;;;;;;15.70;59.14;101898.28;4975823;28;102514;-87
2021/10/11 06:42:10;;;;;;;;;;;;;;;15.69;59.00;101897.47;4975381;28;102182;-87
2021/10/11 06:44:37;;;;;;;;;;;;;;;15.69;58.56;101902.16;4971003;28;102644;-87
2021/10/11 06:47:05;;;;;;;;;;;;;;;15.69;59.04;101902.97;4967644;28;104038;-86
2021/10/11 06:49:35;;;;;;;;;;;;;;;15.70;59.02;101903.78;4976361;28;102821;-87
2021/10/11 06:52:01;;;;;;;;;;;;;;;15.69;58.71;101902.16;4970731;28;102276;-87
2021/10/11 06:54:30;;;;;;;;;;;;;;;15.68;58.84;101901.28;4969231;28;102858;-87
2021/10/11 06:56:56;;;;;;;;;;;;;;;15.69;58.93;101892.00;4962419;28;103678;-87
2021/10/11 06:59:22;;;;;;;;;;;;;;;15.72;58.59;101896.06;4987854;28;102122;-86
2021/10/11 07:01:49;;;;;;;;;;;;;;;15.71;58.77;101889.78;4973565;28;102221;-86
2021/10/11 07:04:16;;;;;;;;;;;;;;;15.71;58.82;101884.28;4980074;28;102483;-87
2021/10/11 07:06:43;;;;;;;;;;;;;;;15.71;58.82;101886.22;4974010;28;103920;-82
2021/10/11 07:09:10;;;;;;;;;;;;;;;15.72;58.66;101879.59;4975429;28;102209;-86
2021/10/11 07:11:38;;;;;;;;;;;;;;;15.72;58.93;101880.44;4976107;28;102191;-86
2021/10/11 07:14:04;;;;;;;;;;;;;;;15.73;58.80;101875.78;4976694;28;102488;-87
2021/10/11 07:16:31;;;;;;;;;;;;;;;15.73;58.51;101867.56;4969536;28;103670;-86
2021/10/11 07:18:57;;;;;;;;;;;;;;;15.74;58.76;101863.69;4972295;28;102164;-87
2021/10/11 07:21:25;;;;;;;;;;;;;;;15.73;59.00;101859.31;4965381;28;102136;-86
2021/10/11 07:23:51;;;;;;;;;;;;;;;15.75;58.85;101862.59;4973866;28;102273;-83
2021/10/11 07:26:17;;;;;;;;;;;;;;;15.74;58.61;101869.19;4973637;28;102399;-87
2021/10/11 07:28:43;;;;;;;;;;;;;;;15.75;58.46;101863.41;4973049;28;102501;-86
2021/10/11 07:31:09;;;;;;;;;;;;;;;15.75;58.95;101862.59;4971668;28;105127;-86
2021/10/11 07:33:35;;;;;;;;;;;;;;;15.76;58.70;101864.22;4971167;28;103274;-87
2021/10/11 07:36:02;;;;;;;;;;;;;;;15.76;58.85;101875.22;4972157;28;103924;-88
2021/10/11 07:38:30;;;;;;;;;;;;;;;15.76;58.97;101880.69;4975342;28;103396;-85
2021/10/11 07:40:57;;;;;;;;;;;;;;;15.76;58.43;101873.31;4974857;28;102360;-86
2021/10/11 07:43:23;;;;;;;;;;;;;;;15.77;58.73;101865.91;4976540;28;103749;-85
2021/10/11 07:45:50;;;;;;;;;;;;;;;15.77;58.89;101882.38;4971701;28;102940;-85
2021/10/11 07:48:16;;;;;;;;;;;;;;;15.77;58.60;101871.38;4981086;28;102223;-85
2021/10/11 07:50:42;;;;;;;;;;;;;;;15.76;58.38;101869.72;4972430;28;102672;-85
2021/10/11 07:53:08;;;;;;;;;;;;;;;15.77;58.83;101863.97;4977968;28;102821;-85
2021/10/11 07:55:35;;;;;;;;;;;;;;;15.78;58.56;101868.34;4975294;28;103893;-87
2021/10/11 07:58:02;;;;;;;;;;;;;;;15.78;58.81;101864.78;4971586;28;102335;-86
2021/10/11 08:00:28;;;;;;;;;;;;;;;15.79;58.89;101863.69;4977736;28;103251;-86
2021/10/11 08:02:54;;;;;;;;;;;;;;;15.79;58.67;101858.19;4978077;28;102401;-86
2021/10/11 08:05:22;;;;;;;;;;;;;;;15.80;58.71;101859.84;4968486;28;102729;-82
2021/10/11 08:07:48;;;;;;;;;;;;;;;15.80;58.69;101848.88;4977673;28;102134;-83
2021/10/11 08:10:14;;;;;;;;;;;;;;;15.80;58.17;101843.38;4968276;28;102599;-82
2021/10/11 08:12:42;;;;;;;;;;;;;;;15.80;58.55;101843.38;4978940;28;103379;-82
2021/10/11 08:15:08;;;;;;;;;;;;;;;15.80;58.54;101835.16;4973032;28;103434;-81
2021/10/11 08:17:35;;;;;;;;;;;;;;;15.81;58.66;101834.03;4978245;28;102354;-81
2021/10/11 08:20:02;;;;;;;;;;;;;;;15.81;58.24;101826.63;4974920;28;102592;-81
2021/10/11 08:22:28;;;;;;;;;;;;;;;15.82;58.21;101824.69;4968867;28;102605;-81
2021/10/11 08:24:55;;;;;;;;;;;;;;;15.83;58.42;101829.06;4969767;28;105198;-81
2021/10/11 08:27:21;;;;;;;;;;;;;;;15.82;58.38;101825.50;4975453;28;102526;-81
2021/10/11 08:29:52;;;;;;;;;;;;;;;15.83;58.07;101815.34;4979770;28;102640;-81
2021/10/11 08:32:19;;;;;;;;;;;;;;;15.84;58.73;101811.53;4982234;28;102727;-81
2021/10/11 08:34:45;;;;;;;;;;;;;;;15.83;58.50;101805.22;4976220;28;102772;-81
2021/10/11 08:37:11;;;;;;;;;;;;;;;15.84;58.15;101811.53;4974635;28;102185;-81
2021/10/11 08:39:38;;;;;;;;;;;;;;;15.83;58.52;101799.72;4978407;28;102641;-80
2021/10/11 08:42:07;;;;;;;;;;;;;;;15.85;58.56;101807.66;4975824;28;102343;-81
2021/10/11 08:44:34;;;;;;;;;;;;;;;15.84;58.10;101801.38;4979948;28;102809;-96
2021/10/11 08:47:02;;;;;;;;;;;;;;;15.86;58.17;101796.41;4979570;28;102302;-94
2021/10/11 08:49:29;;;;;;;;;;;;;;;15.85;58.00;101786.53;4982628;28;102455;-93
2021/10/11 08:51:55;;;;;;;;;;;;;;;15.86;58.41;101787.34;4982621;28;102373;-92
2021/10/11 08:54:21;;;;;;;;;;;;;;;15.88;58.24;101792.56;4978445;28;102227;-88
2021/10/11 08:56:47;;;;;;;;;;;;;;;15.87;58.01;101791.75;4977948;28;102698;-92
2021/10/11 08:59:24;;;;;;;;;;;;;;;15.86;58.41;101798.31;4974147;28;102348;-90
2021/10/11 09:01:59;;;;;;;;;;;;;;;15.88;58.56;101796.13;4978215;28;102261;-82
2021/10/11 09:04:27;;;;;;;;;;;;;;;15.88;58.24;101785.16;4980424;28;104196;-82
2021/10/11 09:07:03;;;;;;;;;;;;;;;15.88;58.00;101782.41;4977056;28;102586;-80
2021/10/11 09:09:30;;;;;;;;;;;;;;;15.88;58.44;101779.66;4973445;28;103946;-82
2021/10/11 09:11:57;;;;;;;;;;;;;;;15.89;57.81;101786.78;4974865;28;102282;-81
2021/10/11 09:14:23;;;;;;;;;;;;;;;15.89;58.08;101775.81;4976245;28;103237;-80
2021/10/11 09:16:54;;;;;;;;;;;;;;;15.89;58.23;101775.81;4971349;28;102550;-80
2021/10/11 09:19:29;;;;;;;;;;;;;;;15.89;57.81;101764.81;4972531;28;102207;-81
2021/10/11 09:21:56;;;;;;;;;;;;;;;15.90;57.82;101755.47;4971926;28;102281;-80
2021/10/11 09:24:23;;;;;;;;;;;;;;;15.90;57.88;101752.72;4973645;28;103055;-80
2021/10/11 09:26:50;;;;;;;;;;;;;;;15.91;57.80;101753.59;4971150;28;102196;-81
2021/10/11 09:29:26;;;;;;;;;;;;;;;15.90;58.13;101747.25;4975708;28;103254;-80
2021/10/11 09:31:52;;;;;;;;;;;;;;;15.90;58.18;101744.50;4973694;28;102495;-80
2021/10/11 09:34:19;;;;;;;;;;;;;;;15.90;58.23;101735.44;4967987;28;103989;-80
2021/10/11 09:36:54;;;;;;;;;;;;;;;15.90;57.86;101739.00;4970365;28;102602;-80
2021/10/11 09:39:23;;;;;;;;;;;;;;;15.89;57.71;101740.13;4970759;28;102388;-81
2021/10/11 09:41:50;;;;;;;;;;;;;;;15.89;57.75;101736.56;4968494;28;102671;-88
2021/10/11 09:44:18;;;;;;;;;;;;;;;15.89;57.57;101731.88;4976084;28;103310;-89
2021/10/11 09:46:44;;;;;;;;;;;;;;;15.88;57.56;101727.50;4974470;28;102459;-88
2021/10/11 09:49:11;;;;;;;;;;;;;;;15.88;57.67;101724.75;4974566;28;102410;-88
2021/10/11 09:51:37;;;;;;;;;;;;;;;15.86;57.42;101715.97;4975431;28;102298;-88
2021/10/11 09:54:04;;;;;;;;;;;;;;;15.88;57.55;101723.94;4973347;28;104133;-87
2021/10/11 09:56:31;;;;;;;;;;;;;;;15.87;57.30;101720.38;4967994;28;102583;-81
2021/10/11 09:58:59;;;;;;;;;;;;;;;15.88;57.40;101713.78;4967614;28;102203;-80
2021/10/11 10:01:25;;;;;;;;;;;;;;;15.88;57.59;101715.72;4976094;28;102869;-81
2021/10/11 10:03:52;;;;;;;;;;;;;;;15.86;57.16;101710.50;4972428;28;104031;-80
2021/10/11 10:06:19;;;;;;;;;;;;;;;15.86;57.06;101707.75;4970788;28;102392;-80
2021/10/11 10:08:47;;;;;;;;;;;;;;;15.85;57.26;101708.84;4970213;28;102239;-81
2021/10/11 10:11:17;;;;;;;;;;;;;;;15.85;57.23;101704.19;4970676;28;102287;-81
2021/10/11 10:13:47;;;;;;;;;;;;;;;15.84;56.79;101702.53;4976268;28;103941;-82
2021/10/11 10:16:14;;;;;;;;;;;;;;;15.84;57.15;101698.97;4974466;28;105417;-81
2021/10/11 10:18:42;;;;;;;;;;;;;;;15.85;56.99;101692.38;4978013;28;105508;-86
2021/10/11 10:21:09;;;;;;;;;;;;;;;15.84;56.89;101696.25;4973552;28;102566;-86
2021/10/11 10:23:35;;;;;;;;;;;;;;;15.84;56.83;101696.25;4977966;28;103467;-86
2021/10/11 10:26:03;;;;;;;;;;;;;;;15.83;56.61;101684.44;4961644;28;102378;-87
2021/10/11 10:28:40;;;;;;;;;;;;;;;15.83;57.09;101689.09;4974386;28;102352;-86
2021/10/11 10:31:08;;;;;;;;;;;;;;;15.83;56.65;101675.38;4977833;28;102254;-87
2021/10/11 10:33:35;;;;;;;;;;;;;;;15.83;56.80;101667.13;4969868;28;102763;-86
2021/10/11 10:36:03;;;;;;;;;;;;;;;15.83;56.92;101672.63;4980478;28;103019;-81
2021/10/11 10:38:31;;;;;;;;;;;;;;;15.83;56.78;101667.97;4969598;28;103431;-82
2021/10/11 10:40:57;;;;;;;;;;;;;;;15.83;56.40;101675.38;4985791;28;102048;-81
2021/10/11 10:43:23;;;;;;;;;;;;;;;15.82;56.56;101671.81;4971571;28;102490;-82
2021/10/11 10:45:50;;;;;;;;;;;;;;;15.81;56.36;101672.09;4978829;28;102719;-82
2021/10/11 10:48:19;;;;;;;;;;;;;;;15.82;56.63;101662.75;4986760;28;103620;-81
2021/10/11 10:50:45;;;;;;;;;;;;;;;15.82;56.52;101666.31;4986962;28;102154;-82
2021/10/11 10:53:11;;;;;;;;;;;;;;;15.82;56.15;101658.06;4972409;28;103951;-81
2021/10/11 10:55:38;;;;;;;;;;;;;;;15.83;56.18;101657.00;4971071;28;102427;-81
2021/10/11 10:58:05;;;;;;;;;;;;;;;15.82;56.31;101649.84;4971107;28;102780;-88
2021/10/11 11:00:32;;;;;;;;;;;;;;;15.82;56.14;101643.53;4964003;28;102678;-84
2021/10/11 11:02:59;;;;;;;;;;;;;;;15.81;56.36;101642.72;4962726;28;102672;-88
2021/10/11 11:05:28;;;;;;;;;;;;;;;15.81;56.09;101642.72;4968561;28;102479;-88
2021/10/11 11:07:55;;;;;;;;;;;;;;;15.81;56.53;101636.41;4983571;28;102392;-90
2021/10/11 11:10:25;;;;;;;;;;;;;;;15.82;56.50;101635.31;4974322;28;102783;-90
2021/10/11 11:12:56;;;;;;;;;;;;;;;15.84;56.66;101635.84;4967400;28;103193;-90
2021/10/11 11:15:24;;;;;;;;;;;;;;;15.84;56.17;101639.41;4972806;28;102177;-90
2021/10/11 11:17:51;;;;;;;;;;;;;;;15.85;56.80;101626.50;4972140;28;103212;-91
2021/10/11 11:20:19;;;;;;;;;;;;;;;15.85;56.61;101626.50;4976135;28;103505;-91
2021/10/11 11:22:47;;;;;;;;;;;;;;;15.85;56.38;101615.53;4976478;28;102684;-89
2021/10/11 11:25:13;;;;;;;;;;;;;;;15.85;56.31;101626.50;4973080;28;102332;-89
2021/10/11 11:27:40;;;;;;;;;;;;;;;15.84;56.33;101624.88;4974648;28;102591;-89
2021/10/11 11:30:07;;;;;;;;;;;;;;;15.84;56.73;101625.69;4971214;28;102670;-89
2021/10/11 11:32:37;;;;;;;;;;;;;;;15.86;56.31;101617.16;4970809;28;103924;-90
2021/10/11 11:35:04;;;;;;;;;;;;;;;15.85;56.83;101621.00;4969773;28;103557;-81
2021/10/11 11:37:30;;;;;;;;;;;;;;;15.87;56.89;101618.81;4970636;28;102609;-81
2021/10/11 11:40:05;;;;;;;;;;;;;;;15.86;56.95;101612.47;4977213;28;102619;-81
2021/10/11 11:42:31;;;;;;;;;;;;;;;15.86;56.73;101615.22;4981464;28;103871;-81
2021/10/11 11:44:58;;;;;;;;;;;;;;;15.88;56.37;101603.16;4979876;28;102156;-81
2021/10/11 11:47:27;;;;;;;;;;;;;;;15.88;56.74;101603.16;4971547;28;102635;-81
2021/10/11 11:49:53;;;;;;;;;;;;;;;15.87;56.66;101607.84;4977839;28;102636;-81
2021/10/11 11:52:19;;;;;;;;;;;;;;;15.86;56.51;101600.69;4975394;28;104075;-90
2021/10/11 11:54:52;;;;;;;;;;;;;;;15.88;57.00;101608.66;4974536;28;102115;-87
2021/10/11 11:57:20;;;;;;;;;;;;;;;15.86;56.93;101601.50;4976029;28;102245;-88
2021/10/11 11:59:47;;;;;;;;;;;;;;;15.86;56.67;101596.00;4976078;28;102377;-88
2021/10/11 12:02:16;;;;;;;;;;;;;;;15.86;56.82;101595.19;4981594;28;103875;-88
2021/10/11 12:04:44;;;;;;;;;;;;;;;15.86;56.76;101595.19;4970442;28;102414;-91
2021/10/11 12:07:10;;;;;;;;;;;;;;;15.85;56.90;101594.38;4981572;28;102542;-89
2021/10/11 12:09:37;;;;;;;;;;;;;;;15.85;56.78;101577.09;4983677;28;102338;-86
2021/10/11 12:12:04;;;;;;;;;;;;;;;15.84;56.87;101575.47;4970397;28;104037;-86
2021/10/11 12:14:33;;;;;;;;;;;;;;;15.85;56.48;101572.44;4988312;28;102088;-80
2021/10/11 12:17:04;;;;;;;;;;;;;;;15.85;56.65;101577.09;4971566;28;102221;-80
2021/10/11 12:19:31;;;;;;;;;;;;;;;15.85;56.49;101574.34;4977285;28;102120;-80
2021/10/11 12:21:58;;;;;;;;;;;;;;;15.86;56.52;101570.50;4976210;28;102700;-80
2021/10/11 12:24:25;;;;;;;;;;;;;;;15.88;56.71;101572.97;4973155;28;102470;-80
2021/10/11 12:26:52;;;;;;;;;;;;;;;15.86;56.54;101567.75;4970863;28;102513;-80